createdAt,value
2023-02-23T00:03:13.685Z,30.60
2023-02-23T00:07:19.244Z,27.00
2023-02-23T00:11:21.433Z,25.50
2023-02-23T00:15:26.135Z,24.40
2023-02-23T00:19:27.597Z,32.90
2023-02-23T00:23:29.146Z,28.20
2023-02-23T00:27:30.613Z,36.70
2023-02-23T00:31:32.212Z,63.40
2023-02-23T00:35:33.751Z,30.70
2023-02-23T00:39:35.180Z,32.10
2023-02-23T00:43:38.569Z,30.60
2023-02-23T00:47:41.833Z,29.80
2023-02-23T00:51:43.910Z,29.60
2023-02-23T00:55:45.310Z,35.00
2023-02-23T00:59:46.806Z,25.80
2023-02-23T01:03:48.826Z,38.80
2023-02-23T01:07:50.436Z,36.60
2023-02-23T01:11:52.153Z,33.90
2023-02-23T01:15:53.715Z,34.50
2023-02-23T01:19:55.476Z,34.60
2023-02-23T01:23:57.637Z,31.30
2023-02-23T01:27:59.182Z,36.80
2023-02-23T01:32:03.271Z,41.40
2023-02-23T01:36:07.240Z,40.90
2023-02-23T01:40:14.497Z,37.10
2023-02-23T01:44:19.392Z,43.40
2023-02-23T01:48:28.295Z,37.20
2023-02-23T01:52:30.250Z,33.40
2023-02-23T01:56:35.856Z,39.10
2023-02-23T02:00:37.491Z,32.20
2023-02-23T02:04:48.098Z,38.50
2023-02-23T02:08:54.275Z,34.80
2023-02-23T02:12:57.166Z,40.10
2023-02-23T02:17:34.777Z,38.40
2023-02-23T02:21:47.155Z,54.80
2023-02-23T02:25:59.162Z,59.30
2023-02-23T02:30:03.784Z,42.00
2023-02-23T02:34:23.512Z,45.50
2023-02-23T02:38:50.484Z,47.10
2023-02-23T02:43:21.115Z,36.90
2023-02-23T02:47:29.493Z,42.70
2023-02-23T02:51:38.976Z,44.10
2023-02-23T02:55:43.326Z,47.60
2023-02-23T03:00:05.890Z,45.70
2023-02-23T03:04:41.425Z,44.50
2023-02-23T03:09:18.536Z,45.00
2023-02-23T03:13:38.286Z,40.30
2023-02-23T03:18:05.768Z,50.40
2023-02-23T03:22:31.731Z,44.50
2023-02-23T03:26:54.688Z,47.00
2023-02-23T03:31:32.417Z,46.60
2023-02-23T03:36:12.546Z,45.40
2023-02-23T03:40:46.089Z,46.50
2023-02-23T03:45:09.027Z,42.10
2023-02-23T03:49:31.745Z,45.80
2023-02-23T03:54:21.348Z,41.30
2023-02-23T03:58:51.505Z,52.80
2023-02-23T04:03:12.451Z,48.00
2023-02-23T04:07:36.699Z,53.40
2023-02-23T04:12:08.971Z,48.20
2023-02-23T04:16:11.515Z,39.90
2023-02-23T04:20:13.865Z,46.60
2023-02-23T04:24:15.811Z,57.70
2023-02-23T04:28:18.621Z,46.30
2023-02-23T04:32:21.441Z,58.60
2023-02-23T04:36:24.232Z,49.90
2023-02-23T04:40:29.185Z,49.20
2023-02-23T04:44:31.448Z,44.60
2023-02-23T04:48:33.660Z,52.70
2023-02-23T04:52:37.079Z,42.70
2023-02-23T04:56:39.927Z,58.40
2023-02-23T05:00:42.085Z,55.50
2023-02-23T05:04:44.964Z,54.00
2023-02-23T05:08:47.168Z,57.40
2023-02-23T05:12:49.069Z,57.60
2023-02-23T05:16:52.161Z,59.90
2023-02-23T05:21:00.631Z,56.20
2023-02-23T05:25:04.179Z,58.60
2023-02-23T05:29:06.475Z,66.20
2023-02-23T05:33:10.208Z,53.70
2023-02-23T05:37:13.871Z,64.90
2023-02-23T05:41:19.994Z,64.30
2023-02-23T05:45:22.508Z,55.20
2023-02-23T05:49:24.331Z,54.10
2023-02-23T05:53:26.508Z,61.90
2023-02-23T05:57:29.880Z,59.60
2023-02-23T06:01:32.353Z,74.80
2023-02-23T06:05:34.471Z,62.10
2023-02-23T06:09:37.506Z,68.20
2023-02-23T06:13:39.782Z,56.10
2023-02-23T06:17:41.530Z,65.80
2023-02-23T06:21:44.442Z,59.20
2023-02-23T06:25:49.743Z,69.10
2023-02-23T06:29:52.321Z,67.90
2023-02-23T06:33:55.089Z,68.10
2023-02-23T06:37:56.859Z,112.20
2023-02-23T06:41:59.875Z,78.30
2023-02-23T06:46:02.396Z,78.60
2023-02-23T06:50:06.248Z,73.70
2023-02-23T06:54:10.679Z,75.10
2023-02-23T06:58:12.470Z,63.10
2023-02-23T07:02:14.583Z,76.90
2023-02-23T07:06:16.786Z,82.70
2023-02-23T07:10:18.487Z,66.70
2023-02-23T07:14:26.421Z,72.90
2023-02-23T07:18:29.380Z,70.90
2023-02-23T07:22:31.206Z,90.30
2023-02-23T07:26:33.395Z,71.80
2023-02-23T07:30:36.134Z,75.40
2023-02-23T07:34:39.098Z,156.30
2023-02-23T07:38:41.779Z,103.20
2023-02-23T07:42:44.678Z,88.80
2023-02-23T07:46:46.806Z,76.30
2023-02-23T07:50:48.956Z,90.60
2023-02-23T07:54:51.082Z,92.50
2023-02-23T07:58:53.290Z,91.30
2023-02-23T08:02:55.567Z,80.00
2023-02-23T08:06:58.051Z,87.20
2023-02-23T08:11:00.781Z,93.30
2023-02-23T08:15:07.704Z,86.60
2023-02-23T08:19:09.680Z,86.60
2023-02-23T08:23:12.139Z,90.00
2023-02-23T08:27:14.460Z,82.50
2023-02-23T08:31:19.034Z,85.70
2023-02-23T08:35:22.318Z,84.00
2023-02-23T08:39:24.413Z,88.00
2023-02-23T08:43:26.615Z,74.70
2023-02-23T08:47:29.480Z,74.60
2023-02-23T08:51:34.339Z,89.60
2023-02-23T08:55:37.754Z,84.00
2023-02-23T08:59:40.690Z,91.30
2023-02-23T09:03:42.569Z,73.30
2023-02-23T09:08:02.663Z,90.80
2023-02-23T09:17:18.186Z,76.90
2023-02-23T09:21:24.585Z,75.00
2023-02-23T09:30:17.434Z,76.20
2023-02-23T09:34:20.220Z,64.70
2023-02-23T09:38:27.104Z,80.90
2023-02-23T09:43:26.594Z,72.80
2023-02-23T09:53:33.772Z,72.40
2023-02-23T09:58:12.139Z,73.90
2023-02-23T10:02:47.250Z,70.50
2023-02-23T10:07:04.202Z,66.10
2023-02-23T10:16:08.604Z,57.30
2023-02-23T10:20:48.503Z,63.30
2023-02-23T10:25:26.544Z,60.80
2023-02-23T10:29:59.980Z,52.10
2023-02-23T10:34:05.874Z,60.70
2023-02-23T10:38:14.542Z,80.20
2023-02-23T10:42:22.386Z,55.30
2023-02-23T10:51:02.316Z,59.50
2023-02-23T10:59:20.554Z,61.10
2023-02-23T11:03:52.368Z,55.70
2023-02-23T11:08:30.730Z,58.00
2023-02-23T11:12:37.533Z,58.90
2023-02-23T11:16:39.157Z,49.90
2023-02-23T11:20:42.558Z,54.80
2023-02-23T11:24:45.694Z,68.30
2023-02-23T11:28:54.431Z,71.70
2023-02-23T11:32:58.708Z,65.00
2023-02-23T11:37:23.561Z,64.90
2023-02-23T11:41:24.985Z,74.70
2023-02-23T11:45:32.930Z,62.20
2023-02-23T11:50:00.478Z,51.60
2023-02-23T11:54:05.769Z,125.90
2023-02-23T11:58:35.163Z,64.40
2023-02-23T12:02:57.956Z,57.60
2023-02-23T12:07:20.879Z,73.30
2023-02-23T12:11:28.169Z,69.20
2023-02-23T12:15:55.568Z,61.40
2023-02-23T12:20:31.410Z,78.20
2023-02-23T12:24:44.174Z,65.60
2023-02-23T12:29:14.757Z,56.60
2023-02-23T12:33:51.762Z,63.20
2023-02-23T12:43:33.311Z,68.40
2023-02-23T12:47:43.736Z,54.50
2023-02-23T12:51:51.119Z,54.50
2023-02-23T12:56:14.357Z,53.30
2023-02-23T13:00:32.901Z,58.10
2023-02-23T13:04:53.009Z,55.80
2023-02-23T13:09:26.050Z,48.90
2023-02-23T13:13:51.112Z,72.50
2023-02-23T13:18:00.983Z,64.50
2023-02-23T13:22:26.279Z,57.20
2023-02-23T13:26:53.311Z,53.20
2023-02-23T13:30:55.973Z,58.60
2023-02-23T13:35:01.793Z,63.30
2023-02-23T13:39:27.251Z,53.00
2023-02-23T13:43:37.425Z,51.20
2023-02-23T13:47:49.493Z,55.40
2023-02-23T13:52:20.400Z,56.60
2023-02-23T13:56:25.664Z,47.80
2023-02-23T14:00:28.116Z,54.80
2023-02-23T14:04:54.842Z,54.90
2023-02-23T14:09:30.727Z,47.60
2023-02-23T14:13:58.800Z,50.80
2023-02-23T14:18:48.811Z,51.90
2023-02-23T14:57:09.444Z,45.30
2023-02-23T15:30:31.105Z,54.40
2023-02-23T15:34:32.832Z,56.00
2023-02-23T15:38:44.317Z,54.80
2023-02-23T15:43:29.263Z,50.60
2023-02-23T15:47:36.444Z,59.50
2023-02-23T15:51:48.380Z,52.70
2023-02-23T15:56:22.222Z,41.10
2023-02-23T16:00:50.694Z,43.80
2023-02-23T16:04:53.051Z,47.50
2023-02-23T16:09:23.463Z,46.90
2023-02-23T16:13:26.628Z,50.40
2023-02-23T16:17:30.353Z,166.50
2023-02-23T16:21:32.634Z,74.30
2023-02-23T16:25:34.753Z,51.10
2023-02-23T16:29:42.310Z,52.60
2023-02-23T16:33:52.236Z,91.20
2023-02-23T16:38:12.009Z,183.50
2023-02-23T16:42:26.207Z,157.40
2023-02-23T16:46:31.700Z,99.80
2023-02-23T16:50:35.702Z,92.10
2023-02-23T16:54:37.338Z,84.40
2023-02-23T16:58:41.949Z,87.70
2023-02-23T17:02:44.590Z,82.30
2023-02-23T17:06:52.207Z,77.50
2023-02-23T17:10:56.844Z,58.70
2023-02-23T17:14:59.355Z,54.00
2023-02-23T17:19:01.370Z,61.50
2023-02-23T17:23:03.500Z,66.10
2023-02-23T17:27:05.495Z,99.40
2023-02-23T17:31:07.783Z,110.90
2023-02-23T17:35:10.228Z,168.80
2023-02-23T17:39:13.553Z,124.20
2023-02-23T17:43:19.535Z,114.50
2023-02-23T17:47:21.512Z,98.40
2023-02-23T17:51:23.793Z,115.20
2023-02-23T17:55:25.679Z,79.10
2023-02-23T17:59:27.997Z,60.30
2023-02-23T18:03:32.700Z,84.80
2023-02-23T18:07:35.157Z,87.40
2023-02-23T18:11:37.187Z,88.80
2023-02-23T18:15:40.361Z,77.70
2023-02-23T18:19:54.304Z,72.10
2023-02-23T18:23:58.544Z,65.30
2023-02-23T18:28:00.569Z,67.50
2023-02-23T18:32:03.917Z,58.40
2023-02-23T18:36:27.555Z,75.70
2023-02-23T18:40:29.336Z,61.50
2023-02-23T18:44:32.895Z,65.90
2023-02-23T18:48:37.237Z,53.70
2023-02-23T18:52:40.290Z,68.40
2023-02-23T18:56:43.379Z,67.30
2023-02-23T19:00:46.105Z,60.50
2023-02-23T19:04:47.723Z,72.30
2023-02-23T19:08:53.459Z,81.50
2023-02-23T19:12:55.690Z,86.40
2023-02-23T19:16:57.485Z,78.40
2023-02-23T19:21:00.202Z,63.60
2023-02-23T19:25:02.286Z,74.30
2023-02-23T19:29:04.508Z,68.20
2023-02-23T19:33:06.650Z,67.50
2023-02-23T19:37:09.238Z,58.20
2023-02-23T19:41:14.831Z,49.20
2023-02-23T19:45:17.784Z,72.70
2023-02-23T19:49:20.920Z,48.20
2023-02-23T19:53:23.207Z,74.90
2023-02-23T19:57:24.862Z,63.90
2023-02-23T20:01:29.466Z,47.50
2023-02-23T20:05:41.652Z,59.20
2023-02-23T20:09:43.838Z,60.40
2023-02-23T20:13:46.764Z,64.30
2023-02-23T20:17:50.626Z,72.30
2023-02-23T20:21:56.976Z,60.90
2023-02-23T20:25:58.970Z,57.60
2023-02-23T20:30:01.648Z,57.70
2023-02-23T20:34:06.267Z,76.90
2023-02-23T20:38:08.121Z,80.40
2023-02-23T20:42:10.562Z,80.10
2023-02-23T20:46:14.203Z,82.70
2023-02-23T20:50:15.987Z,74.80
2023-02-23T20:54:17.833Z,83.50
2023-02-23T20:58:28.883Z,49.80
2023-02-23T21:02:30.946Z,50.50
2023-02-23T21:06:33.351Z,45.10
2023-02-23T21:10:38.044Z,37.20
2023-02-23T21:14:40.450Z,37.50
2023-02-23T21:18:43.494Z,43.90
2023-02-23T21:22:48.661Z,55.90
2023-02-23T21:26:51.032Z,45.00
2023-02-23T21:30:53.151Z,35.30
2023-02-23T21:34:55.060Z,46.70
2023-02-23T21:38:57.082Z,65.50
2023-02-23T21:43:00.650Z,48.70
2023-02-23T21:47:06.448Z,40.40
2023-02-23T21:51:11.395Z,49.50
2023-02-23T21:55:23.586Z,48.10
2023-02-23T21:59:25.478Z,42.20
2023-02-23T22:03:28.722Z,38.80
2023-02-23T22:07:31.826Z,36.30
2023-02-23T22:11:35.246Z,43.60
2023-02-23T22:15:37.970Z,47.20
2023-02-23T22:19:39.998Z,62.30
2023-02-23T22:23:43.287Z,59.80
2023-02-23T22:27:45.512Z,46.50
2023-02-23T22:31:47.396Z,51.90
2023-02-23T22:35:50.237Z,44.90
2023-02-23T22:39:52.153Z,42.00
2023-02-23T22:43:55.783Z,43.00
2023-02-23T22:48:00.969Z,52.10
2023-02-23T22:52:03.001Z,47.50
2023-02-23T22:56:05.463Z,48.40
2023-02-23T23:00:09.615Z,40.20
2023-02-23T23:04:11.839Z,50.50
2023-02-23T23:08:13.981Z,52.80
2023-02-23T23:12:17.470Z,45.60
2023-02-23T23:16:31.838Z,41.80
2023-02-23T23:20:34.498Z,46.10
2023-02-23T23:24:36.535Z,49.50
2023-02-23T23:28:39.901Z,38.00
2023-02-23T23:32:42.285Z,40.50
2023-02-23T23:36:45.966Z,55.80
2023-02-23T23:40:47.775Z,39.00
2023-02-23T23:44:50.256Z,54.40
2023-02-23T23:48:53.925Z,42.40
2023-02-23T23:52:56.423Z,44.30
2023-02-23T23:57:02.912Z,44.70
